Tampa, Florida
Traffic Map
Current Weather Conditions
Tampa, Florida
Clear
Clear
17°
Feels Like: 17°
Wind Chill: 17° Ceiling: Unl
Heat Index: 17° Visibility: 10mi
Dew Point: Wind: 9mph
Humidity: 50% Direction: 220° (SW)
Pressure: 30.28in Gusts: 0mph
Raw Report DataKTPA 111853Z 22008KT 10SM CLR 17/07 A3028 RMK AO2 SLP252 T01720067
Traffic Incident Summary
Active as of:
Severity:
Category:
InformationThere was an issue retrieving the traffic information for this location. Please try a different location or try again shortly.
Advertisements
Track Severe Weather on mobile